Time;durP1;ratioP1;P1;durP2;ratioP2;P2;SDS_P1;SDS_P2;PMS_P1;PMS_P2;Temp;Humidity;BMP_temperature;BMP_pressure;BME280_temperature;BME280_humidity;BME280_pressure;Samples;Min_cycle;Max_cycle;Signal;HPM_P1;HPM_P2
2023/03/10 00:02:01;;;;;;;3.85;2.15;;;;;;;;;;10255734;28;20547;-74
2023/03/10 00:07:04;;;;;;;3.28;2.10;;;;;;;;;;10275729;28;20085;-75
2023/03/10 00:12:04;;;;;;;;;;;;;;;;;;10261741;28;20078;-75
2023/03/10 00:17:06;;;;;;;5.32;2.65;;;;;;;;;;10273017;28;19918;-77
2023/03/10 00:22:07;;;;;;;4.93;1.98;;;;;;;;;;10257869;28;20054;-76
2023/03/10 00:27:09;;;;;;;;;;;;;;;;;;10309659;28;20141;-74
2023/03/10 00:32:10;;;;;;;5.60;2.60;;;;;;;;;;10296495;28;19972;-76
2023/03/10 00:37:11;;;;;;;5.63;2.40;;;;;;;;;;10281760;28;20043;-76
2023/03/10 00:42:11;;;;;;;5.95;1.95;;;;;;;;;;10296475;28;20057;-77
2023/03/10 00:47:14;;;;;;;4.75;2.22;;;;;;;;;;10295324;28;20081;-75
2023/03/10 00:52:14;;;;;;;4.22;2.40;;;;;;;;;;10311622;28;20050;-77
2023/03/10 00:57:15;;;;;;;4.43;2.03;;;;;;;;;;10317574;28;20042;-75
2023/03/10 01:02:15;;;;;;;3.90;2.17;;;;;;;;;;10298984;28;20496;-75
2023/03/10 01:07:16;;;;;;;8.68;2.47;;;;;;;;;;10311250;28;20049;-76
2023/03/10 01:12:16;;;;;;;4.20;2.20;;;;;;;;;;10311997;28;20050;-76
2023/03/10 01:17:17;;;;;;;5.32;2.30;;;;;;;;;;10308047;28;20042;-77
2023/03/10 01:22:17;;;;;;;5.43;2.33;;;;;;;;;;10293615;28;20569;-75
2023/03/10 01:27:17;;;;;;;3.60;2.05;;;;;;;;;;10300460;28;20050;-76
2023/03/10 01:32:18;;;;;;;3.80;1.90;;;;;;;;;;10310826;28;20055;-76
2023/03/10 01:37:20;;;;;;;6.25;2.20;;;;;;;;;;10291607;28;20057;-76
2023/03/10 01:42:20;;;;;;;3.85;2.05;;;;;;;;;;10298300;28;20046;-77
2023/03/10 01:47:20;;;;;;;3.60;1.73;;;;;;;;;;10308350;28;20054;-76
2023/03/10 01:52:23;;;;;;;5.75;2.17;;;;;;;;;;10314592;28;20049;-77
2023/03/10 01:57:26;;;;;;;5.63;2.10;;;;;;;;;;10332293;28;20101;-76
2023/03/10 02:02:30;;;;;;;3.35;1.60;;;;;;;;;;10336717;28;20053;-77
2023/03/10 02:07:31;;;;;;;3.50;1.75;;;;;;;;;;10335781;28;20052;-76
2023/03/10 02:12:32;;;;;;;4.78;1.95;;;;;;;;;;10320396;28;20124;-76
2023/03/10 02:17:33;;;;;;;3.42;1.67;;;;;;;;;;10293047;28;20065;-77
2023/03/10 02:22:34;;;;;;;3.78;2.00;;;;;;;;;;10311459;28;20053;-75
2023/03/10 02:27:36;;;;;;;3.50;1.58;;;;;;;;;;10311785;28;20503;-76
2023/03/10 02:32:40;;;;;;;5.05;1.88;;;;;;;;;;10294191;28;20034;-77
2023/03/10 02:37:42;;;;;;;3.75;1.88;;;;;;;;;;10310867;28;20058;-76
2023/03/10 02:42:42;;;;;;;4.75;1.58;;;;;;;;;;10281186;28;20050;-77
2023/03/10 02:47:43;;;;;;;4.95;1.92;;;;;;;;;;10307561;28;20053;-75
2023/03/10 02:52:55;;;;;;;5.35;2.03;;;;;;;;;;10292994;28;20474;-76
2023/03/10 02:57:56;;;;;;;3.35;2.13;;;;;;;;;;10307786;28;20081;-74
2023/03/10 03:02:56;;;;;;;3.45;1.80;;;;;;;;;;10349703;28;20050;-76
2023/03/10 03:07:57;;;;;;;5.18;2.40;;;;;;;;;;10322629;28;20046;-75
2023/03/10 03:12:59;;;;;;;4.85;2.30;;;;;;;;;;10310401;28;20042;-75
2023/03/10 03:18:03;;;;;;;6.57;2.30;;;;;;;;;;10319040;28;20053;-77
2023/03/10 03:23:05;;;;;;;4.78;2.47;;;;;;;;;;10309428;28;20058;-75
2023/03/10 03:28:07;;;;;;;5.25;2.42;;;;;;;;;;10302293;28;20050;-74
2023/03/10 03:33:11;;;;;;;2.73;1.80;;;;;;;;;;10306307;28;20053;-75
2023/03/10 03:38:15;;;;;;;5.80;2.30;;;;;;;;;;10292995;28;20046;-76
2023/03/10 03:43:15;;;;;;;5.20;2.22;;;;;;;;;;10316189;28;20105;-74
2023/03/10 03:48:17;;;;;;;7.50;3.05;;;;;;;;;;10299247;28;20050;-75
2023/03/10 03:53:18;;;;;;;6.88;3.30;;;;;;;;;;10294396;28;20069;-76
2023/03/10 03:58:18;;;;;;;6.85;2.80;;;;;;;;;;10296932;28;20077;-76
2023/03/10 04:03:19;;;;;;;5.47;2.28;;;;;;;;;;10295355;28;20042;-75
2023/03/10 04:08:20;;;;;;;4.05;3.13;;;;;;;;;;10312013;28;20054;-76
2023/03/10 04:13:23;;;;;;;4.65;2.30;;;;;;;;;;10298302;28;20042;-76
2023/03/10 04:18:24;;;;;;;5.60;2.58;;;;;;;;;;10297202;28;20042;-76
2023/03/10 04:23:25;;;;;;;7.15;3.00;;;;;;;;;;10294572;28;20925;-75
2023/03/10 04:28:26;;;;;;;6.07;2.60;;;;;;;;;;10293888;28;20125;-78
2023/03/10 04:33:29;;;;;;;5.20;2.20;;;;;;;;;;10296037;28;20053;-75
2023/03/10 04:38:30;;;;;;;5.30;2.70;;;;;;;;;;10313674;28;20050;-74
2023/03/10 04:43:31;;;;;;;5.03;2.30;;;;;;;;;;10317540;28;20545;-77
2023/03/10 04:48:33;;;;;;;8.35;2.58;;;;;;;;;;10285328;28;20056;-76
2023/03/10 04:53:36;;;;;;;5.32;2.45;;;;;;;;;;10294238;28;20058;-76
2023/03/10 04:58:36;;;;;;;6.03;2.53;;;;;;;;;;10316110;28;20249;-76
2023/03/10 05:03:37;;;;;;;5.50;2.35;;;;;;;;;;10304987;28;20663;-78
2023/03/10 05:08:40;;;;;;;6.25;2.20;;;;;;;;;;10318725;28;20045;-77
2023/03/10 05:13:41;;;;;;;5.07;2.00;;;;;;;;;;10347727;28;20046;-77
2023/03/10 05:18:44;;;;;;;5.90;1.90;;;;;;;;;;10351186;28;20074;-80
2023/03/10 05:23:48;;;;;;;5.55;2.10;;;;;;;;;;10314748;28;20078;-77
2023/03/10 05:28:49;;;;;;;6.22;2.05;;;;;;;;;;10314912;28;20049;-75
2023/03/10 05:33:56;;;;;;;2.55;1.60;;;;;;;;;;10299975;28;20129;-76
2023/03/10 05:38:57;;;;;;;3.67;1.58;;;;;;;;;;10314047;28;20061;-76
2023/03/10 05:43:58;;;;;;;4.07;1.50;;;;;;;;;;10312768;28;21109;-77
2023/03/10 05:48:59;;;;;;;3.05;1.50;;;;;;;;;;10285835;28;20077;-78
2023/03/10 05:53:59;;;;;;;2.75;1.30;;;;;;;;;;10289757;28;20042;-77
2023/03/10 05:59:02;;;;;;;2.08;1.40;;;;;;;;;;10296348;28;20066;-77
2023/03/10 06:04:07;;;;;;;2.45;1.27;;;;;;;;;;10297177;28;20095;-79
2023/03/10 06:09:09;;;;;;;2.20;1.30;;;;;;;;;;10308983;28;20112;-78
2023/03/10 06:14:09;;;;;;;2.45;1.48;;;;;;;;;;10319288;28;20042;-80
2023/03/10 06:19:10;;;;;;;4.18;2.00;;;;;;;;;;10339898;28;20138;-76
2023/03/10 06:24:10;;;;;;;2.90;1.97;;;;;;;;;;10307845;28;20044;-75
2023/03/10 06:29:11;;;;;;;4.13;1.90;;;;;;;;;;10313423;28;20285;-77
2023/03/10 06:34:11;;;;;;;2.97;1.60;;;;;;;;;;10309445;28;20379;-78
2023/03/10 06:39:13;;;;;;;4.22;2.00;;;;;;;;;;10309126;28;20053;-79
2023/03/10 06:44:17;;;;;;;2.17;1.65;;;;;;;;;;10308612;28;20077;-78
2023/03/10 06:49:18;;;;;;;3.28;1.60;;;;;;;;;;10308404;28;20038;-82
2023/03/10 06:54:21;;;;;;;2.03;1.48;;;;;;;;;;10312424;28;20049;-78
2023/03/10 06:59:23;;;;;;;2.15;1.17;;;;;;;;;;10316222;28;20078;-78
2023/03/10 07:04:23;;;;;;;1.40;1.10;;;;;;;;;;10332624;28;20134;-79
2023/03/10 07:09:24;;;;;;;1.73;1.20;;;;;;;;;;10294910;28;20157;-78
2023/03/10 07:14:26;;;;;;;2.80;1.40;;;;;;;;;;10310878;28;20503;-76
2023/03/10 07:19:27;;;;;;;3.95;1.60;;;;;;;;;;10291819;28;20899;-81
2023/03/10 07:24:28;;;;;;;1.85;1.00;;;;;;;;;;10296233;28;20073;-79
2023/03/10 07:29:34;;;;;;;3.25;1.15;;;;;;;;;;10308121;28;20087;-79
2023/03/10 07:34:35;;;;;;;1.80;1.10;;;;;;;;;;10325520;28;20038;-77
2023/03/10 07:39:35;;;;;;;1.85;0.90;;;;;;;;;;10308785;28;20042;-78
2023/03/10 07:44:36;;;;;;;0.83;0.70;;;;;;;;;;10308654;28;20039;-77
2023/03/10 07:49:37;;;;;;;1.55;1.00;;;;;;;;;;10308112;28;20380;-79
2023/03/10 07:54:37;;;;;;;1.17;0.90;;;;;;;;;;10308454;28;20043;-78
2023/03/10 07:59:38;;;;;;;3.33;1.00;;;;;;;;;;10310924;28;20686;-78
2023/03/10 08:04:39;;;;;;;1.38;0.90;;;;;;;;;;10308085;28;20129;-77
2023/03/10 08:09:40;;;;;;;2.50;0.90;;;;;;;;;;10314751;28;20062;-78
2023/03/10 08:14:40;;;;;;;1.08;0.80;;;;;;;;;;10357469;28;20046;-78
2023/03/10 08:19:42;;;;;;;1.42;0.93;;;;;;;;;;10365930;28;20042;-80
2023/03/10 08:24:45;;;;;;;2.00;0.98;;;;;;;;;;10380214;28;20015;-81
2023/03/10 08:29:46;;;;;;;1.85;0.90;;;;;;;;;;10362288;28;20049;-78
2023/03/10 08:34:46;;;;;;;1.88;0.88;;;;;;;;;;10316785;28;20073;-79
2023/03/10 08:39:48;;;;;;;1.33;1.23;;;;;;;;;;10319531;28;20077;-78
2023/03/10 08:44:49;;;;;;;1.13;1.00;;;;;;;;;;10310942;28;20050;-78
2023/03/10 08:49:51;;;;;;;2.15;0.93;;;;;;;;;;10293246;28;20081;-78
2023/03/10 08:54:51;;;;;;;1.70;0.88;;;;;;;;;;10309659;28;20453;-78
2023/03/10 08:59:53;;;;;;;1.40;0.80;;;;;;;;;;10307132;28;20062;-79
2023/03/10 09:04:54;;;;;;;2.50;0.93;;;;;;;;;;10345395;28;20038;-77
2023/03/10 09:09:54;;;;;;;1.83;0.80;;;;;;;;;;10295291;28;20046;-79
2023/03/10 09:14:57;;;;;;;1.03;0.63;;;;;;;;;;10310658;28;20077;-80
2023/03/10 09:19:58;;;;;;;1.42;0.82;;;;;;;;;;10307132;28;20368;-78
2023/03/10 09:24:58;;;;;;;1.35;0.80;;;;;;;;;;10306331;28;20488;-77
2023/03/10 09:29:59;;;;;;;0.85;0.65;;;;;;;;;;10317140;28;20049;-77
2023/03/10 09:35:00;;;;;;;1.40;0.60;;;;;;;;;;10345019;28;20062;-79
2023/03/10 09:40:04;;;;;;;2.15;0.88;;;;;;;;;;10299851;28;20301;-79
2023/03/10 09:45:06;;;;;;;1.05;0.75;;;;;;;;;;10290844;28;20317;-78
2023/03/10 09:50:14;;;;;;;1.30;0.60;;;;;;;;;;10317125;28;20046;-79
2023/03/10 09:55:32;;;;;;;2.55;1.00;;;;;;;;;;10337196;28;20653;-79
2023/03/10 10:00:37;;;;;;;1.23;0.70;;;;;;;;;;10319510;28;20056;-79
2023/03/10 10:05:38;;;;;;;1.65;0.80;;;;;;;;;;10314459;28;20054;-78
2023/03/10 10:10:41;;;;;;;2.22;0.80;;;;;;;;;;10303680;28;20042;-78
2023/03/10 10:15:49;;;;;;;1.17;0.70;;;;;;;;;;10289742;28;20756;-78
2023/03/10 10:20:52;;;;;;;2.03;1.10;;;;;;;;;;10338532;28;20482;-80
2023/03/10 10:25:53;;;;;;;;;;;;;;;;;;10310769;28;20446;-80
2023/03/10 10:31:08;;;;;;;1.65;0.98;;;;;;;;;;10302986;28;19922;-78
2023/03/10 10:36:14;;;;;;;3.00;0.60;;;;;;;;;;10290638;28;21105;-78
2023/03/10 10:41:22;;;;;;;4.07;0.80;;;;;;;;;;10303007;28;20418;-78
2023/03/10 10:46:27;;;;;;;1.13;0.50;;;;;;;;;;10283414;28;20062;-78
2023/03/10 10:51:34;;;;;;;1.75;0.60;;;;;;;;;;10283523;28;20069;-77
2023/03/10 10:56:36;;;;;;;1.60;0.60;;;;;;;;;;10296964;28;20046;-80
2023/03/10 11:01:50;;;;;;;1.23;0.60;;;;;;;;;;10292822;28;20442;-80
2023/03/10 11:06:53;;;;;;;1.15;0.70;;;;;;;;;;10321580;28;20050;-78
2023/03/10 11:12:09;;;;;;;0.77;0.60;;;;;;;;;;10309269;28;20042;-78
2023/03/10 11:17:20;;;;;;;2.25;0.85;;;;;;;;;;10310614;28;20056;-78
2023/03/10 11:22:23;;;;;;;5.30;0.80;;;;;;;;;;10320173;28;20123;-78
2023/03/10 11:27:44;;;;;;;2.03;1.05;;;;;;;;;;10346607;28;20047;-78
2023/03/10 11:32:57;;;;;;;5.13;1.45;;;;;;;;;;10349249;28;20104;-81
2023/03/10 11:38:16;;;;;;;2.67;0.82;;;;;;;;;;10353740;28;20074;-80
2023/03/10 11:43:34;;;;;;;4.15;0.80;;;;;;;;;;10329963;28;20100;-81
2023/03/10 11:48:50;;;;;;;2.88;1.23;;;;;;;;;;10328768;28;20523;-78
2023/03/10 11:53:54;;;;;;;5.57;1.10;;;;;;;;;;10314972;28;20046;-81
2023/03/10 11:58:57;;;;;;;1.35;0.98;;;;;;;;;;10328568;28;20041;-82
2023/03/10 12:04:10;;;;;;;1.75;0.80;;;;;;;;;;10329457;28;20045;-78
2023/03/10 12:09:35;;;;;;;2.33;0.90;;;;;;;;;;10328910;28;20142;-79
2023/03/10 12:14:37;;;;;;;3.47;0.65;;;;;;;;;;10331623;28;20101;-81
2023/03/10 12:19:56;;;;;;;2.42;1.20;;;;;;;;;;10343957;28;20062;-80
2023/03/10 12:24:58;;;;;;;1.95;0.73;;;;;;;;;;10348270;28;20347;-79
2023/03/10 12:29:59;;;;;;;1.63;0.70;;;;;;;;;;10319142;28;20070;-81
2023/03/10 12:35:21;;;;;;;1.27;0.52;;;;;;;;;;10320392;28;20054;-79
2023/03/10 12:40:57;;;;;;;1.60;0.60;;;;;;;;;;10306136;28;20570;-77
2023/03/10 12:45:59;;;;;;;1.60;0.40;;;;;;;;;;10180132;28;20050;-80
2023/03/10 12:51:08;;;;;;;0.88;0.70;;;;;;;;;;10294049;28;20042;-78
2023/03/10 12:56:12;;;;;;;1.13;0.85;;;;;;;;;;10307201;28;20049;-79
2023/03/10 13:01:16;;;;;;;0.85;0.80;;;;;;;;;;10314510;28;20109;-79
2023/03/10 13:06:17;;;;;;;2.30;0.70;;;;;;;;;;10325672;28;20039;-78
2023/03/10 13:11:18;;;;;;;0.55;0.50;;;;;;;;;;10318695;28;20161;-78
2023/03/10 13:16:19;;;;;;;0.80;0.60;;;;;;;;;;10313523;28;20047;-77
2023/03/10 13:21:32;;;;;;;0.88;0.60;;;;;;;;;;10304269;28;20786;-78
2023/03/10 13:26:32;;;;;;;1.10;0.52;;;;;;;;;;10305071;28;20802;-81
2023/03/10 13:31:33;;;;;;;1.00;0.50;;;;;;;;;;10300921;28;20047;-79
2023/03/10 13:36:37;;;;;;;0.50;0.40;;;;;;;;;;10315113;28;20049;-79
2023/03/10 13:41:42;;;;;;;1.52;0.77;;;;;;;;;;10335799;28;20054;-79
2023/03/10 13:46:47;;;;;;;1.08;0.60;;;;;;;;;;10306150;28;20073;-78
2023/03/10 13:51:54;;;;;;;0.63;0.52;;;;;;;;;;10308227;28;20046;-77
2023/03/10 13:56:57;;;;;;;0.70;0.70;;;;;;;;;;10299235;28;20050;-79
2023/03/10 14:01:59;;;;;;;1.50;0.80;;;;;;;;;;10302893;28;20062;-77
2023/03/10 14:07:06;;;;;;;1.40;0.68;;;;;;;;;;10302195;28;20478;-77
2023/03/10 14:12:08;;;;;;;1.60;0.60;;;;;;;;;;10307971;28;20034;-76
2023/03/10 14:17:28;;;;;;;0.77;0.73;;;;;;;;;;10329116;28;20042;-76
2023/03/10 14:22:43;;;;;;;1.80;0.70;;;;;;;;;;10305769;28;20054;-76
2023/03/10 14:28:05;;;;;;;1.23;0.63;;;;;;;;;;10306873;28;20050;-76
2023/03/10 14:33:10;;;;;;;0.50;0.50;;;;;;;;;;10292629;28;20141;-75
2023/03/10 14:38:11;;;;;;;1.67;0.60;;;;;;;;;;10324816;28;20086;-78
2023/03/10 14:43:15;;;;;;;0.88;0.60;;;;;;;;;;10355981;28;20035;-81
2023/03/10 14:48:17;;;;;;;0.95;0.70;;;;;;;;;;10357866;28;20026;-80
2023/03/10 14:53:19;;;;;;;1.35;0.70;;;;;;;;;;10339795;28;20035;-78
2023/03/10 14:58:25;;;;;;;1.08;0.60;;;;;;;;;;10294185;28;20134;-77
2023/03/10 15:03:28;;;;;;;1.00;0.60;;;;;;;;;;10300999;28;20101;-76
2023/03/10 15:08:29;;;;;;;1.85;1.38;;;;;;;;;;10306420;28;20042;-74
2023/03/10 15:13:30;;;;;;;4.72;1.23;;;;;;;;;;10319003;28;20046;-77
2023/03/10 15:18:32;;;;;;;1.13;0.55;;;;;;;;;;10313509;28;20060;-77
2023/03/10 15:23:33;;;;;;;3.97;1.20;;;;;;;;;;10309706;28;20077;-76
2023/03/10 15:28:33;;;;;;;2.25;1.10;;;;;;;;;;10312854;28;20458;-75
2023/03/10 15:33:33;;;;;;;1.03;0.83;;;;;;;;;;10307597;28;20043;-78
2023/03/10 15:38:34;;;;;;;0.90;0.70;;;;;;;;;;10296959;28;20316;-79
2023/03/10 15:43:34;;;;;;;0.60;0.60;;;;;;;;;;10306473;28;20035;-79
2023/03/10 15:48:35;;;;;;;1.05;0.47;;;;;;;;;;10296595;28;20120;-77
2023/03/10 15:53:36;;;;;;;1.20;0.50;;;;;;;;;;10301252;28;20092;-75
2023/03/10 15:58:36;;;;;;;0.75;0.60;;;;;;;;;;10287258;28;20046;-78
2023/03/10 16:03:37;;;;;;;1.40;1.00;;;;;;;;;;10301059;28;20042;-77
2023/03/10 16:08:39;;;;;;;1.10;0.85;;;;;;;;;;10303014;28;20052;-80
2023/03/10 16:13:40;;;;;;;0.68;0.60;;;;;;;;;;10307560;28;20049;-78
2023/03/10 16:18:40;;;;;;;1.33;0.70;;;;;;;;;;10294793;28;20141;-76
2023/03/10 16:23:42;;;;;;;0.80;0.60;;;;;;;;;;10327458;28;20301;-78
2023/03/10 16:28:45;;;;;;;1.02;0.60;;;;;;;;;;10309721;28;20138;-78
2023/03/10 16:33:46;;;;;;;0.95;0.75;;;;;;;;;;10305982;28;20128;-76
2023/03/10 16:38:48;;;;;;;0.88;0.70;;;;;;;;;;10300155;28;20808;-75
2023/03/10 16:43:49;;;;;;;1.15;0.80;;;;;;;;;;10304409;28;20055;-83
2023/03/10 16:48:51;;;;;;;0.90;0.90;;;;;;;;;;10291270;28;20051;-76
2023/03/10 16:53:52;;;;;;;0.70;0.70;;;;;;;;;;10302948;28;20102;-75
2023/03/10 16:58:53;;;;;;;0.85;0.70;;;;;;;;;;10290540;28;20061;-77
2023/03/10 17:03:54;;;;;;;1.40;0.93;;;;;;;;;;10303804;28;20057;-76
2023/03/10 17:08:55;;;;;;;1.15;0.88;;;;;;;;;;10286470;28;20688;-75
2023/03/10 17:13:57;;;;;;;1.13;0.93;;;;;;;;;;10288232;28;20080;-76
2023/03/10 17:18:59;;;;;;;1.20;1.10;;;;;;;;;;10303996;28;20059;-76
2023/03/10 17:24:02;;;;;;;1.63;0.85;;;;;;;;;;10309821;28;20042;-77
2023/03/10 17:29:03;;;;;;;1.15;0.95;;;;;;;;;;10300499;28;21187;-75
2023/03/10 17:34:06;;;;;;;1.10;0.95;;;;;;;;;;10304945;28;20495;-75
2023/03/10 17:39:06;;;;;;;1.10;0.90;;;;;;;;;;10316929;28;20837;-75
2023/03/10 17:44:08;;;;;;;1.65;1.30;;;;;;;;;;10320268;28;20046;-76
2023/03/10 17:49:12;;;;;;;1.98;1.10;;;;;;;;;;10348008;28;20034;-77
2023/03/10 17:54:14;;;;;;;2.05;1.40;;;;;;;;;;10366128;28;20053;-80
2023/03/10 17:59:15;;;;;;;2.27;1.20;;;;;;;;;;10332426;28;20117;-76
2023/03/10 18:04:16;;;;;;;3.22;1.85;;;;;;;;;;10307801;28;20043;-75
2023/03/10 18:09:16;;;;;;;3.40;1.63;;;;;;;;;;10305625;28;20073;-76
2023/03/10 18:14:17;;;;;;;2.70;1.58;;;;;;;;;;10298186;28;20055;-76
2023/03/10 18:19:20;;;;;;;3.00;1.40;;;;;;;;;;10307946;28;20059;-74
2023/03/10 18:24:21;;;;;;;;;;;;;;;;;;10308092;28;20041;-74
2023/03/10 18:29:21;;;;;;;3.50;1.52;;;;;;;;;;10311808;28;19924;-73
2023/03/10 18:34:22;;;;;;;2.58;1.30;;;;;;;;;;10310575;28;20089;-77
2023/03/10 18:39:23;;;;;;;3.90;1.23;;;;;;;;;;10318406;28;20050;-78
2023/03/10 18:44:23;;;;;;;1.88;1.30;;;;;;;;;;10297097;28;20038;-77
2023/03/10 18:49:24;;;;;;;7.18;1.70;;;;;;;;;;10300559;28;20038;-76
2023/03/10 18:54:24;;;;;;;3.78;1.33;;;;;;;;;;10298811;28;20042;-77
2023/03/10 18:59:25;;;;;;;2.45;1.25;;;;;;;;;;10300031;28;20192;-77
2023/03/10 19:04:25;;;;;;;4.70;1.65;;;;;;;;;;10295217;28;20047;-77
2023/03/10 19:09:26;;;;;;;3.30;1.30;;;;;;;;;;10297026;28;20047;-76
2023/03/10 19:14:26;;;;;;;3.15;1.55;;;;;;;;;;10293472;28;20054;-77
2023/03/10 19:19:27;;;;;;;5.03;1.33;;;;;;;;;;10312152;28;20054;-76
2023/03/10 19:24:28;;;;;;;4.57;1.40;;;;;;;;;;10315360;28;20082;-82
2023/03/10 19:29:30;;;;;;;3.33;1.30;;;;;;;;;;10323408;28;20039;-78
2023/03/10 19:34:30;;;;;;;3.13;1.30;;;;;;;;;;10346124;28;20053;-78
2023/03/10 19:39:31;;;;;;;2.58;1.40;;;;;;;;;;10343682;28;20057;-77
2023/03/10 19:44:31;;;;;;;4.72;1.58;;;;;;;;;;10293029;28;20050;-77
2023/03/10 19:49:33;;;;;;;1.73;1.40;;;;;;;;;;10293018;28;20811;-78
2023/03/10 19:54:33;;;;;;;3.38;1.95;;;;;;;;;;10296415;28;20042;-75
2023/03/10 19:59:35;;;;;;;2.95;1.88;;;;;;;;;;10309833;28;20117;-76
2023/03/10 20:04:37;;;;;;;3.63;2.00;;;;;;;;;;10353766;28;20074;-78
2023/03/10 20:09:37;;;;;;;3.70;2.45;;;;;;;;;;10317193;28;20046;-76
2023/03/10 20:14:37;;;;;;;2.75;2.38;;;;;;;;;;10303668;28;20050;-74
2023/03/10 20:19:39;;;;;;;4.03;2.70;;;;;;;;;;10286757;28;20097;-76
2023/03/10 20:24:39;;;;;;;2.75;2.05;;;;;;;;;;10281487;28;20137;-77
2023/03/10 20:29:41;;;;;;;2.65;1.98;;;;;;;;;;10307872;28;20052;-76
2023/03/10 20:34:41;;;;;;;3.47;1.90;;;;;;;;;;10292660;28;20054;-76
2023/03/10 20:39:42;;;;;;;2.28;1.90;;;;;;;;;;10288998;28;20651;-77
2023/03/10 20:44:43;;;;;;;2.17;1.77;;;;;;;;;;10304534;28;20061;-78
2023/03/10 20:49:45;;;;;;;2.47;1.80;;;;;;;;;;10313031;28;20043;-76
2023/03/10 20:54:45;;;;;;;1.95;1.80;;;;;;;;;;10340241;28;20099;-77
2023/03/10 20:59:46;;;;;;;1.90;1.48;;;;;;;;;;10358115;28;20054;-79
2023/03/10 21:04:48;;;;;;;1.70;1.60;;;;;;;;;;10351444;28;20145;-79
2023/03/10 21:09:48;;;;;;;2.78;1.88;;;;;;;;;;10305639;28;20053;-77
2023/03/10 21:14:49;;;;;;;3.53;2.40;;;;;;;;;;10296678;28;21135;-79
2023/03/10 21:19:51;;;;;;;2.00;1.88;;;;;;;;;;10292836;28;20525;-75
2023/03/10 21:24:52;;;;;;;2.03;1.83;;;;;;;;;;10288804;28;20133;-74
2023/03/10 21:29:53;;;;;;;2.50;2.30;;;;;;;;;;10280238;28;20912;-75
2023/03/10 21:34:53;;;;;;;2.60;2.10;;;;;;;;;;10286445;28;20675;-72
2023/03/10 21:39:54;;;;;;;2.65;1.92;;;;;;;;;;10296702;28;20133;-76
2023/03/10 21:44:54;;;;;;;2.10;1.90;;;;;;;;;;10297784;28;20053;-76
2023/03/10 21:49:55;;;;;;;2.30;2.03;;;;;;;;;;10294704;28;20518;-77
2023/03/10 21:54:56;;;;;;;3.05;2.40;;;;;;;;;;10276253;28;21494;-80
2023/03/10 21:59:56;;;;;;;4.20;2.50;;;;;;;;;;10289645;28;20071;-75
2023/03/10 22:04:59;;;;;;;3.00;2.58;;;;;;;;;;10303597;28;20062;-79
2023/03/10 22:10:00;;;;;;;3.05;2.47;;;;;;;;;;10304750;28;20054;-75
2023/03/10 22:15:00;;;;;;;3.33;2.20;;;;;;;;;;10289636;28;20446;-78
2023/03/10 22:20:01;;;;;;;3.22;2.50;;;;;;;;;;10301403;28;20058;-76
2023/03/10 22:25:01;;;;;;;2.85;2.50;;;;;;;;;;10284844;28;21133;-76
2023/03/10 22:30:02;;;;;;;4.95;2.83;;;;;;;;;;10285938;28;20576;-78
2023/03/10 22:35:03;;;;;;;3.08;2.60;;;;;;;;;;10278104;28;20051;-76
2023/03/10 22:40:04;;;;;;;4.30;2.45;;;;;;;;;;10298264;28;20081;-76
2023/03/10 22:45:12;;;;;;;3.28;2.00;;;;;;;;;;10256438;28;20066;-78
2023/03/10 22:50:14;;;;;;;3.47;1.95;;;;;;;;;;10268060;28;20663;-79
2023/03/10 22:55:16;;;;;;;3.23;2.30;;;;;;;;;;10272501;28;20054;-78
2023/03/10 23:00:18;;;;;;;2.83;2.00;;;;;;;;;;10270558;28;20318;-77
2023/03/10 23:05:20;;;;;;;2.30;1.75;;;;;;;;;;10234809;28;20043;-75
2023/03/10 23:10:22;;;;;;;2.50;1.90;;;;;;;;;;10268449;28;20069;-76
2023/03/10 23:15:24;;;;;;;2.75;1.98;;;;;;;;;;10269162;28;20377;-74
2023/03/10 23:20:26;;;;;;;1.98;1.70;;;;;;;;;;10272865;28;20055;-77
2023/03/10 23:25:28;;;;;;;3.10;2.10;;;;;;;;;;10278079;28;20566;-76
2023/03/10 23:30:29;;;;;;;2.13;1.65;;;;;;;;;;10272691;28;20047;-74
2023/03/10 23:35:30;;;;;;;2.50;1.63;;;;;;;;;;10273411;28;20043;-75
2023/03/10 23:40:32;;;;;;;2.28;1.90;;;;;;;;;;10267896;28;20055;-77
2023/03/10 23:45:34;;;;;;;2.75;1.80;;;;;;;;;;10272901;28;20054;-78
2023/03/10 23:50:36;;;;;;;1.90;1.38;;;;;;;;;;10250310;28;20478;-74
2023/03/10 23:55:37;;;;;;;2.63;1.50;;;;;;;;;;10253177;28;20482;-81
